sensor_id;sensor_type;location;lat;lon;timestamp;P1;durP1;ratioP1;P2;durP2;ratioP2
8042;SDS011;4064;48.132;11.366;2022-09-01T00:02:22;22.67;;;20.47;;
8042;SDS011;4064;48.132;11.366;2022-09-01T00:04:51;25.23;;;21.30;;
8042;SDS011;4064;48.132;11.366;2022-09-01T00:07:22;23.30;;;21.20;;
8042;SDS011;4064;48.132;11.366;2022-09-01T00:09:48;27.83;;;22.50;;
8042;SDS011;4064;48.132;11.366;2022-09-01T00:12:15;23.50;;;21.00;;
8042;SDS011;4064;48.132;11.366;2022-09-01T00:14:41;25.23;;;22.73;;
8042;SDS011;4064;48.132;11.366;2022-09-01T00:17:08;26.60;;;21.60;;
8042;SDS011;4064;48.132;11.366;2022-09-01T00:19:35;23.40;;;21.00;;
8042;SDS011;4064;48.132;11.366;2022-09-01T00:22:02;24.57;;;21.97;;
8042;SDS011;4064;48.132;11.366;2022-09-01T00:24:28;23.13;;;20.70;;
8042;SDS011;4064;48.132;11.366;2022-09-01T00:26:54;24.43;;;21.97;;
8042;SDS011;4064;48.132;11.366;2022-09-01T00:29:21;23.93;;;21.30;;
8042;SDS011;4064;48.132;11.366;2022-09-01T00:31:47;24.13;;;21.70;;
8042;SDS011;4064;48.132;11.366;2022-09-01T00:34:15;22.40;;;20.10;;
8042;SDS011;4064;48.132;11.366;2022-09-01T00:36:41;25.60;;;22.60;;
8042;SDS011;4064;48.132;11.366;2022-09-01T00:39:07;25.17;;;21.87;;
8042;SDS011;4064;48.132;11.366;2022-09-01T00:41:35;28.53;;;25.57;;
8042;SDS011;4064;48.132;11.366;2022-09-01T00:44:14;24.53;;;21.93;;
8042;SDS011;4064;48.132;11.366;2022-09-01T00:46:44;27.27;;;24.33;;
8042;SDS011;4064;48.132;11.366;2022-09-01T00:49:15;31.97;;;26.00;;
8042;SDS011;4064;48.132;11.366;2022-09-01T00:51:48;30.73;;;25.83;;
8042;SDS011;4064;48.132;11.366;2022-09-01T00:54:19;29.10;;;25.70;;
8042;SDS011;4064;48.132;11.366;2022-09-01T00:56:47;30.73;;;25.70;;
8042;SDS011;4064;48.132;11.366;2022-09-01T00:59:15;29.60;;;26.40;;
8042;SDS011;4064;48.132;11.366;2022-09-01T01:01:42;30.83;;;25.80;;
8042;SDS011;4064;48.132;11.366;2022-09-01T01:04:08;30.23;;;26.70;;
8042;SDS011;4064;48.132;11.366;2022-09-01T01:06:41;31.60;;;26.93;;
8042;SDS011;4064;48.132;11.366;2022-09-01T01:09:14;31.70;;;28.30;;
8042;SDS011;4064;48.132;11.366;2022-09-01T01:11:41;30.33;;;26.43;;
8042;SDS011;4064;48.132;11.366;2022-09-01T01:14:11;31.13;;;26.60;;
8042;SDS011;4064;48.132;11.366;2022-09-01T01:16:45;33.90;;;28.47;;
8042;SDS011;4064;48.132;11.366;2022-09-01T01:22:25;31.97;;;28.43;;
8042;SDS011;4064;48.132;11.366;2022-09-01T01:28:08;31.77;;;28.20;;
8042;SDS011;4064;48.132;11.366;2022-09-01T01:30:50;30.93;;;26.87;;
8042;SDS011;4064;48.132;11.366;2022-09-01T01:33:19;32.77;;;29.07;;
8042;SDS011;4064;48.132;11.366;2022-09-01T01:35:48;34.17;;;27.77;;
8042;SDS011;4064;48.132;11.366;2022-09-01T01:38:15;36.63;;;29.83;;
8042;SDS011;4064;48.132;11.366;2022-09-01T01:40:43;30.93;;;27.60;;
8042;SDS011;4064;48.132;11.366;2022-09-01T01:43:09;31.07;;;26.37;;
8042;SDS011;4064;48.132;11.366;2022-09-01T01:45:39;32.53;;;27.73;;
8042;SDS011;4064;48.132;11.366;2022-09-01T01:48:04;33.73;;;28.80;;
8042;SDS011;4064;48.132;11.366;2022-09-01T01:50:34;33.83;;;27.63;;
8042;SDS011;4064;48.132;11.366;2022-09-01T01:53:02;34.73;;;29.10;;
8042;SDS011;4064;48.132;11.366;2022-09-01T01:55:32;31.13;;;27.83;;
8042;SDS011;4064;48.132;11.366;2022-09-01T01:57:58;36.40;;;29.60;;
8042;SDS011;4064;48.132;11.366;2022-09-01T02:00:29;31.13;;;26.70;;
8042;SDS011;4064;48.132;11.366;2022-09-01T02:02:58;29.70;;;26.43;;
8042;SDS011;4064;48.132;11.366;2022-09-01T02:05:25;35.10;;;27.87;;
8042;SDS011;4064;48.132;11.366;2022-09-01T02:07:54;36.00;;;29.57;;
8042;SDS011;4064;48.132;11.366;2022-09-01T02:10:27;34.80;;;29.17;;
8042;SDS011;4064;48.132;11.366;2022-09-01T02:12:55;33.27;;;29.33;;
8042;SDS011;4064;48.132;11.366;2022-09-01T02:15:27;33.33;;;28.47;;
8042;SDS011;4064;48.132;11.366;2022-09-01T02:17:53;30.33;;;26.40;;
8042;SDS011;4064;48.132;11.366;2022-09-01T02:20:24;34.70;;;27.77;;
8042;SDS011;4064;48.132;11.366;2022-09-01T02:22:53;32.93;;;29.37;;
8042;SDS011;4064;48.132;11.366;2022-09-01T02:25:21;31.37;;;28.00;;
8042;SDS011;4064;48.132;11.366;2022-09-01T02:27:47;31.93;;;27.70;;
8042;SDS011;4064;48.132;11.366;2022-09-01T02:30:19;31.30;;;26.77;;
8042;SDS011;4064;48.132;11.366;2022-09-01T02:32:50;34.33;;;28.60;;
8042;SDS011;4064;48.132;11.366;2022-09-01T02:35:16;31.63;;;28.10;;
8042;SDS011;4064;48.132;11.366;2022-09-01T02:37:43;33.20;;;29.63;;
8042;SDS011;4064;48.132;11.366;2022-09-01T02:40:13;30.67;;;26.40;;
8042;SDS011;4064;48.132;11.366;2022-09-01T02:42:39;30.40;;;27.10;;
8042;SDS011;4064;48.132;11.366;2022-09-01T02:45:07;33.13;;;27.00;;
8042;SDS011;4064;48.132;11.366;2022-09-01T02:47:40;29.23;;;26.00;;
8042;SDS011;4064;48.132;11.366;2022-09-01T02:50:07;26.23;;;23.40;;
8042;SDS011;4064;48.132;11.366;2022-09-01T02:52:38;29.40;;;25.67;;
8042;SDS011;4064;48.132;11.366;2022-09-01T02:55:05;25.90;;;22.33;;
8042;SDS011;4064;48.132;11.366;2022-09-01T02:57:31;25.00;;;21.90;;
8042;SDS011;4064;48.132;11.366;2022-09-01T02:59:58;26.30;;;23.20;;
8042;SDS011;4064;48.132;11.366;2022-09-01T03:02:24;28.33;;;22.20;;
8042;SDS011;4064;48.132;11.366;2022-09-01T03:04:52;26.37;;;23.13;;
8042;SDS011;4064;48.132;11.366;2022-09-01T03:07:19;27.33;;;24.33;;
8042;SDS011;4064;48.132;11.366;2022-09-01T03:09:50;27.40;;;23.63;;
8042;SDS011;4064;48.132;11.366;2022-09-01T03:12:17;27.60;;;23.97;;
8042;SDS011;4064;48.132;11.366;2022-09-01T03:14:43;29.90;;;23.40;;
8042;SDS011;4064;48.132;11.366;2022-09-01T03:17:09;27.33;;;24.50;;
8042;SDS011;4064;48.132;11.366;2022-09-01T03:19:36;25.67;;;22.73;;
8042;SDS011;4064;48.132;11.366;2022-09-01T03:22:05;29.07;;;24.17;;
8042;SDS011;4064;48.132;11.366;2022-09-01T03:24:31;29.57;;;25.60;;
8042;SDS011;4064;48.132;11.366;2022-09-01T03:26:57;28.40;;;24.03;;
8042;SDS011;4064;48.132;11.366;2022-09-01T03:29:23;27.80;;;24.77;;
8042;SDS011;4064;48.132;11.366;2022-09-01T03:31:48;27.37;;;24.23;;
8042;SDS011;4064;48.132;11.366;2022-09-01T03:34:14;27.27;;;23.93;;
8042;SDS011;4064;48.132;11.366;2022-09-01T03:36:45;26.93;;;23.77;;
8042;SDS011;4064;48.132;11.366;2022-09-01T03:39:15;25.20;;;22.33;;
8042;SDS011;4064;48.132;11.366;2022-09-01T03:41:42;28.23;;;23.10;;
8042;SDS011;4064;48.132;11.366;2022-09-01T03:44:08;28.13;;;22.13;;
8042;SDS011;4064;48.132;11.366;2022-09-01T03:46:38;28.57;;;25.00;;
8042;SDS011;4064;48.132;11.366;2022-09-01T03:49:04;24.93;;;22.23;;
8042;SDS011;4064;48.132;11.366;2022-09-01T03:51:39;29.87;;;23.97;;
8042;SDS011;4064;48.132;11.366;2022-09-01T03:54:06;24.20;;;21.77;;
8042;SDS011;4064;48.132;11.366;2022-09-01T03:59:01;29.13;;;23.50;;
8042;SDS011;4064;48.132;11.366;2022-09-01T04:01:27;28.37;;;23.63;;
8042;SDS011;4064;48.132;11.366;2022-09-01T04:04:07;25.03;;;22.13;;
8042;SDS011;4064;48.132;11.366;2022-09-01T04:06:33;25.20;;;20.93;;
8042;SDS011;4064;48.132;11.366;2022-09-01T04:09:01;28.43;;;22.57;;
8042;SDS011;4064;48.132;11.366;2022-09-01T04:11:27;29.40;;;24.43;;
8042;SDS011;4064;48.132;11.366;2022-09-01T04:13:53;27.00;;;24.20;;
8042;SDS011;4064;48.132;11.366;2022-09-01T04:16:23;26.60;;;23.80;;
8042;SDS011;4064;48.132;11.366;2022-09-01T04:19:08;29.57;;;24.80;;
8042;SDS011;4064;48.132;11.366;2022-09-01T04:21:44;24.37;;;21.80;;
8042;SDS011;4064;48.132;11.366;2022-09-01T04:24:18;24.70;;;22.03;;
8042;SDS011;4064;48.132;11.366;2022-09-01T04:26:45;26.80;;;21.83;;
8042;SDS011;4064;48.132;11.366;2022-09-01T04:29:12;23.37;;;20.90;;
8042;SDS011;4064;48.132;11.366;2022-09-01T04:31:39;24.10;;;21.30;;
8042;SDS011;4064;48.132;11.366;2022-09-01T04:34:06;23.77;;;21.23;;
8042;SDS011;4064;48.132;11.366;2022-09-01T04:36:42;25.50;;;22.80;;
8042;SDS011;4064;48.132;11.366;2022-09-01T04:39:09;23.70;;;21.17;;
8042;SDS011;4064;48.132;11.366;2022-09-01T04:41:36;26.07;;;22.67;;
8042;SDS011;4064;48.132;11.366;2022-09-01T04:44:03;23.20;;;20.50;;
8042;SDS011;4064;48.132;11.366;2022-09-01T04:46:32;27.70;;;22.83;;
8042;SDS011;4064;48.132;11.366;2022-09-01T04:49:00;22.80;;;20.03;;
8042;SDS011;4064;48.132;11.366;2022-09-01T04:51:32;27.00;;;23.33;;
8042;SDS011;4064;48.132;11.366;2022-09-01T04:54:00;25.77;;;22.93;;
8042;SDS011;4064;48.132;11.366;2022-09-01T04:56:26;26.40;;;23.10;;
8042;SDS011;4064;48.132;11.366;2022-09-01T04:58:54;25.80;;;22.27;;
8042;SDS011;4064;48.132;11.366;2022-09-01T05:01:22;26.57;;;23.80;;
8042;SDS011;4064;48.132;11.366;2022-09-01T05:03:53;25.83;;;23.20;;
8042;SDS011;4064;48.132;11.366;2022-09-01T05:06:24;27.30;;;24.40;;
8042;SDS011;4064;48.132;11.366;2022-09-01T05:08:50;27.70;;;23.50;;
8042;SDS011;4064;48.132;11.366;2022-09-01T05:11:16;28.90;;;25.17;;
8042;SDS011;4064;48.132;11.366;2022-09-01T05:13:43;27.53;;;23.80;;
8042;SDS011;4064;48.132;11.366;2022-09-01T05:16:12;26.90;;;24.00;;
8042;SDS011;4064;48.132;11.366;2022-09-01T05:18:41;26.60;;;23.60;;
8042;SDS011;4064;48.132;11.366;2022-09-01T05:21:11;27.97;;;25.00;;
8042;SDS011;4064;48.132;11.366;2022-09-01T05:23:40;26.87;;;22.47;;
8042;SDS011;4064;48.132;11.366;2022-09-01T05:26:17;30.37;;;25.47;;
8042;SDS011;4064;48.132;11.366;2022-09-01T05:28:44;28.27;;;25.30;;
8042;SDS011;4064;48.132;11.366;2022-09-01T05:31:12;27.87;;;24.83;;
8042;SDS011;4064;48.132;11.366;2022-09-01T05:33:38;26.37;;;23.57;;
8042;SDS011;4064;48.132;11.366;2022-09-01T05:36:10;28.80;;;24.30;;
8042;SDS011;4064;48.132;11.366;2022-09-01T05:38:37;24.17;;;21.50;;
8042;SDS011;4064;48.132;11.366;2022-09-01T05:41:06;27.03;;;24.10;;
8042;SDS011;4064;48.132;11.366;2022-09-01T05:43:34;25.00;;;22.40;;
8042;SDS011;4064;48.132;11.366;2022-09-01T05:46:01;26.67;;;21.70;;
8042;SDS011;4064;48.132;11.366;2022-09-01T05:48:32;24.67;;;22.07;;
8042;SDS011;4064;48.132;11.366;2022-09-01T05:51:04;24.13;;;20.93;;
8042;SDS011;4064;48.132;11.366;2022-09-01T05:53:31;25.57;;;22.97;;
8042;SDS011;4064;48.132;11.366;2022-09-01T05:55:58;24.30;;;21.77;;
8042;SDS011;4064;48.132;11.366;2022-09-01T05:58:31;25.97;;;23.30;;
8042;SDS011;4064;48.132;11.366;2022-09-01T06:00:59;28.00;;;24.97;;
8042;SDS011;4064;48.132;11.366;2022-09-01T06:03:25;22.50;;;19.40;;
8042;SDS011;4064;48.132;11.366;2022-09-01T06:05:52;21.13;;;19.03;;
8042;SDS011;4064;48.132;11.366;2022-09-01T06:08:20;19.60;;;17.60;;
8042;SDS011;4064;48.132;11.366;2022-09-01T06:10:49;17.73;;;15.97;;
8042;SDS011;4064;48.132;11.366;2022-09-01T06:13:16;19.07;;;17.10;;
8042;SDS011;4064;48.132;11.366;2022-09-01T06:15:45;19.77;;;17.70;;
8042;SDS011;4064;48.132;11.366;2022-09-01T06:18:13;20.23;;;17.90;;
8042;SDS011;4064;48.132;11.366;2022-09-01T06:20:43;21.00;;;19.00;;
8042;SDS011;4064;48.132;11.366;2022-09-01T06:23:11;20.17;;;17.10;;
8042;SDS011;4064;48.132;11.366;2022-09-01T06:25:48;19.50;;;17.50;;
8042;SDS011;4064;48.132;11.366;2022-09-01T06:28:16;18.87;;;16.33;;
8042;SDS011;4064;48.132;11.366;2022-09-01T06:30:47;18.40;;;16.47;;
8042;SDS011;4064;48.132;11.366;2022-09-01T06:33:14;19.30;;;17.23;;
8042;SDS011;4064;48.132;11.366;2022-09-01T06:35:40;20.03;;;18.07;;
8042;SDS011;4064;48.132;11.366;2022-09-01T06:38:09;17.67;;;15.77;;
8042;SDS011;4064;48.132;11.366;2022-09-01T06:40:37;16.20;;;14.50;;
8042;SDS011;4064;48.132;11.366;2022-09-01T06:43:04;18.93;;;16.73;;
8042;SDS011;4064;48.132;11.366;2022-09-01T06:45:43;20.27;;;17.53;;
8042;SDS011;4064;48.132;11.366;2022-09-01T06:48:13;17.17;;;15.43;;
8042;SDS011;4064;48.132;11.366;2022-09-01T06:50:40;17.80;;;15.73;;
8042;SDS011;4064;48.132;11.366;2022-09-01T06:53:07;19.07;;;17.17;;
8042;SDS011;4064;48.132;11.366;2022-09-01T06:55:38;18.10;;;16.17;;
8042;SDS011;4064;48.132;11.366;2022-09-01T06:58:09;18.03;;;16.17;;
8042;SDS011;4064;48.132;11.366;2022-09-01T07:00:40;17.43;;;15.63;;
8042;SDS011;4064;48.132;11.366;2022-09-01T07:03:07;19.33;;;17.33;;
8042;SDS011;4064;48.132;11.366;2022-09-01T07:05:38;17.10;;;14.87;;
8042;SDS011;4064;48.132;11.366;2022-09-01T07:08:05;16.00;;;14.33;;
8042;SDS011;4064;48.132;11.366;2022-09-01T07:10:44;17.47;;;15.67;;
8042;SDS011;4064;48.132;11.366;2022-09-01T07:13:14;17.37;;;14.20;;
8042;SDS011;4064;48.132;11.366;2022-09-01T07:15:44;20.67;;;14.77;;
8042;SDS011;4064;48.132;11.366;2022-09-01T07:18:12;15.90;;;14.30;;
8042;SDS011;4064;48.132;11.366;2022-09-01T07:20:40;15.83;;;13.93;;
8042;SDS011;4064;48.132;11.366;2022-09-01T07:23:06;15.70;;;14.07;;
8042;SDS011;4064;48.132;11.366;2022-09-01T07:25:32;16.50;;;14.90;;
8042;SDS011;4064;48.132;11.366;2022-09-01T07:28:06;18.73;;;14.27;;
8042;SDS011;4064;48.132;11.366;2022-09-01T07:30:32;13.37;;;12.10;;
8042;SDS011;4064;48.132;11.366;2022-09-01T07:33:04;15.20;;;13.67;;
8042;SDS011;4064;48.132;11.366;2022-09-01T07:35:36;14.13;;;12.77;;
8042;SDS011;4064;48.132;11.366;2022-09-01T07:38:03;13.67;;;12.27;;
8042;SDS011;4064;48.132;11.366;2022-09-01T07:40:32;13.67;;;12.37;;
8042;SDS011;4064;48.132;11.366;2022-09-01T07:43:02;15.63;;;14.00;;
8042;SDS011;4064;48.132;11.366;2022-09-01T07:45:52;14.40;;;12.93;;
8042;SDS011;4064;48.132;11.366;2022-09-01T07:48:23;13.33;;;12.13;;
8042;SDS011;4064;48.132;11.366;2022-09-01T07:50:52;14.30;;;13.00;;
8042;SDS011;4064;48.132;11.366;2022-09-01T07:53:28;13.60;;;12.20;;
8042;SDS011;4064;48.132;11.366;2022-09-01T07:55:56;14.57;;;13.07;;
8042;SDS011;4064;48.132;11.366;2022-09-01T07:58:25;12.43;;;11.23;;
8042;SDS011;4064;48.132;11.366;2022-09-01T08:00:53;11.73;;;10.63;;
8042;SDS011;4064;48.132;11.366;2022-09-01T08:03:20;12.10;;;11.00;;
8042;SDS011;4064;48.132;11.366;2022-09-01T08:05:48;12.50;;;10.70;;
8042;SDS011;4064;48.132;11.366;2022-09-01T08:08:18;12.10;;;11.00;;
8042;SDS011;4064;48.132;11.366;2022-09-01T08:10:44;11.97;;;10.87;;
8042;SDS011;4064;48.132;11.366;2022-09-01T08:13:11;11.30;;;9.80;;
8042;SDS011;4064;48.132;11.366;2022-09-01T08:15:37;12.00;;;10.97;;
8042;SDS011;4064;48.132;11.366;2022-09-01T08:18:04;11.80;;;10.80;;
8042;SDS011;4064;48.132;11.366;2022-09-01T08:20:30;12.70;;;11.60;;
8042;SDS011;4064;48.132;11.366;2022-09-01T08:22:59;11.30;;;10.20;;
8042;SDS011;4064;48.132;11.366;2022-09-01T08:25:25;10.43;;;9.33;;
8042;SDS011;4064;48.132;11.366;2022-09-01T08:27:52;10.20;;;9.30;;
8042;SDS011;4064;48.132;11.366;2022-09-01T08:30:17;10.80;;;9.80;;
8042;SDS011;4064;48.132;11.366;2022-09-01T08:32:44;11.73;;;8.93;;
8042;SDS011;4064;48.132;11.366;2022-09-01T08:35:11;9.10;;;8.40;;
8042;SDS011;4064;48.132;11.366;2022-09-01T08:37:37;8.30;;;7.60;;
8042;SDS011;4064;48.132;11.366;2022-09-01T08:40:04;9.20;;;8.40;;
8042;SDS011;4064;48.132;11.366;2022-09-01T08:48:01;8.93;;;8.03;;
8042;SDS011;4064;48.132;11.366;2022-09-01T08:50:37;10.50;;;9.60;;
8042;SDS011;4064;48.132;11.366;2022-09-01T08:53:04;10.03;;;9.13;;
8042;SDS011;4064;48.132;11.366;2022-09-01T08:55:46;9.27;;;8.27;;
8042;SDS011;4064;48.132;11.366;2022-09-01T08:58:16;8.90;;;8.20;;
8042;SDS011;4064;48.132;11.366;2022-09-01T09:00:43;10.50;;;9.43;;
8042;SDS011;4064;48.132;11.366;2022-09-01T09:06:09;9.37;;;8.57;;
8042;SDS011;4064;48.132;11.366;2022-09-01T09:08:52;9.00;;;8.20;;
8042;SDS011;4064;48.132;11.366;2022-09-01T09:17:09;9.30;;;8.40;;
8042;SDS011;4064;48.132;11.366;2022-09-01T09:19:40;9.60;;;8.67;;
8042;SDS011;4064;48.132;11.366;2022-09-01T09:22:15;9.67;;;8.80;;
8042;SDS011;4064;48.132;11.366;2022-09-01T09:27:45;9.13;;;8.23;;
8042;SDS011;4064;48.132;11.366;2022-09-01T09:30:06;9.07;;;8.37;;
8042;SDS011;4064;48.132;11.366;2022-09-01T09:37:52;9.77;;;8.33;;
8042;SDS011;4064;48.132;11.366;2022-09-01T09:40:19;8.07;;;7.00;;
8042;SDS011;4064;48.132;11.366;2022-09-01T09:48:08;7.60;;;6.90;;
8042;SDS011;4064;48.132;11.366;2022-09-01T09:53:16;7.10;;;6.57;;
8042;SDS011;4064;48.132;11.366;2022-09-01T09:58:40;7.60;;;6.90;;
8042;SDS011;4064;48.132;11.366;2022-09-01T10:01:12;7.50;;;6.80;;
8042;SDS011;4064;48.132;11.366;2022-09-01T10:03:51;7.37;;;6.77;;
8042;SDS011;4064;48.132;11.366;2022-09-01T10:06:38;6.97;;;6.37;;
8042;SDS011;4064;48.132;11.366;2022-09-01T10:09:15;8.13;;;7.33;;
8042;SDS011;4064;48.132;11.366;2022-09-01T10:11:57;6.90;;;6.30;;
8042;SDS011;4064;48.132;11.366;2022-09-01T10:14:28;7.03;;;6.30;;
8042;SDS011;4064;48.132;11.366;2022-09-01T10:17:06;7.10;;;5.80;;
8042;SDS011;4064;48.132;11.366;2022-09-01T10:19:46;6.50;;;5.90;;
8042;SDS011;4064;48.132;11.366;2022-09-01T10:22:29;7.70;;;6.33;;
8042;SDS011;4064;48.132;11.366;2022-09-01T10:24:56;8.47;;;7.57;;
8042;SDS011;4064;48.132;11.366;2022-09-01T10:27:23;9.33;;;8.43;;
8042;SDS011;4064;48.132;11.366;2022-09-01T10:29:53;8.47;;;7.70;;
8042;SDS011;4064;48.132;11.366;2022-09-01T10:32:44;8.13;;;7.47;;
8042;SDS011;4064;48.132;11.366;2022-09-01T10:35:47;6.70;;;6.20;;
8042;SDS011;4064;48.132;11.366;2022-09-01T10:38:08;9.60;;;8.80;;
8042;SDS011;4064;48.132;11.366;2022-09-01T10:40:40;8.90;;;7.63;;
8042;SDS011;4064;48.132;11.366;2022-09-01T10:45:51;8.10;;;7.50;;
8042;SDS011;4064;48.132;11.366;2022-09-01T10:50:50;7.47;;;6.77;;
8042;SDS011;4064;48.132;11.366;2022-09-01T10:56:36;7.60;;;7.00;;
8042;SDS011;4064;48.132;11.366;2022-09-01T10:59:09;6.13;;;5.57;;
8042;SDS011;4064;48.132;11.366;2022-09-01T11:04:05;5.57;;;5.07;;
8042;SDS011;4064;48.132;11.366;2022-09-01T11:09:18;5.60;;;5.10;;
8042;SDS011;4064;48.132;11.366;2022-09-01T11:14:27;5.03;;;3.97;;
8042;SDS011;4064;48.132;11.366;2022-09-01T11:22:26;5.03;;;4.57;;
8042;SDS011;4064;48.132;11.366;2022-09-01T11:27:58;4.30;;;3.50;;
8042;SDS011;4064;48.132;11.366;2022-09-01T11:33:04;4.27;;;3.90;;
8042;SDS011;4064;48.132;11.366;2022-09-01T11:35:44;4.37;;;3.13;;
8042;SDS011;4064;48.132;11.366;2022-09-01T11:38:11;2.87;;;2.63;;
8042;SDS011;4064;48.132;11.366;2022-09-01T11:40:40;4.40;;;3.40;;
8042;SDS011;4064;48.132;11.366;2022-09-01T11:43:08;3.73;;;3.40;;
8042;SDS011;4064;48.132;11.366;2022-09-01T11:48:34;3.57;;;2.50;;
8042;SDS011;4064;48.132;11.366;2022-09-01T11:51:01;3.70;;;3.30;;
8042;SDS011;4064;48.132;11.366;2022-09-01T11:53:28;3.47;;;3.27;;
8042;SDS011;4064;48.132;11.366;2022-09-01T11:55:55;5.20;;;3.33;;
8042;SDS011;4064;48.132;11.366;2022-09-01T11:58:35;2.73;;;2.53;;
8042;SDS011;4064;48.132;11.366;2022-09-01T12:01:22;3.73;;;2.80;;
8042;SDS011;4064;48.132;11.366;2022-09-01T12:03:54;3.47;;;3.23;;
8042;SDS011;4064;48.132;11.366;2022-09-01T12:06:24;3.37;;;2.93;;
8042;SDS011;4064;48.132;11.366;2022-09-01T12:08:57;3.70;;;2.90;;
8042;SDS011;4064;48.132;11.366;2022-09-01T12:11:27;4.80;;;2.47;;
8042;SDS011;4064;48.132;11.366;2022-09-01T12:16:26;3.80;;;2.67;;
8042;SDS011;4064;48.132;11.366;2022-09-01T12:18:53;7.13;;;3.20;;
8042;SDS011;4064;48.132;11.366;2022-09-01T12:23:50;3.30;;;2.20;;
8042;SDS011;4064;48.132;11.366;2022-09-01T12:26:26;3.50;;;3.20;;
8042;SDS011;4064;48.132;11.366;2022-09-01T12:28:53;2.60;;;2.10;;
8042;SDS011;4064;48.132;11.366;2022-09-01T12:31:23;2.77;;;2.57;;
8042;SDS011;4064;48.132;11.366;2022-09-01T12:33:51;5.17;;;4.20;;
8042;SDS011;4064;48.132;11.366;2022-09-01T12:36:26;2.63;;;2.43;;
8042;SDS011;4064;48.132;11.366;2022-09-01T12:39:17;4.13;;;2.63;;
8042;SDS011;4064;48.132;11.366;2022-09-01T12:41:44;2.77;;;2.57;;
8042;SDS011;4064;48.132;11.366;2022-09-01T12:46:55;3.50;;;3.20;;
8042;SDS011;4064;48.132;11.366;2022-09-01T12:49:45;2.50;;;2.30;;
8042;SDS011;4064;48.132;11.366;2022-09-01T12:54:43;2.80;;;2.60;;
8042;SDS011;4064;48.132;11.366;2022-09-01T13:02:43;3.70;;;2.70;;
8042;SDS011;4064;48.132;11.366;2022-09-01T13:05:19;2.80;;;2.60;;
8042;SDS011;4064;48.132;11.366;2022-09-01T13:07:57;4.20;;;2.70;;
8042;SDS011;4064;48.132;11.366;2022-09-01T13:10:25;7.47;;;6.67;;
8042;SDS011;4064;48.132;11.366;2022-09-01T13:12:54;5.17;;;4.67;;
8042;SDS011;4064;48.132;11.366;2022-09-01T13:15:24;3.47;;;3.17;;
8042;SDS011;4064;48.132;11.366;2022-09-01T13:17:50;3.40;;;3.10;;
8042;SDS011;4064;48.132;11.366;2022-09-01T13:20:16;7.87;;;3.47;;
8042;SDS011;4064;48.132;11.366;2022-09-01T13:22:43;6.40;;;3.00;;
8042;SDS011;4064;48.132;11.366;2022-09-01T13:25:12;3.30;;;2.90;;
8042;SDS011;4064;48.132;11.366;2022-09-01T13:27:41;3.23;;;2.87;;
8042;SDS011;4064;48.132;11.366;2022-09-01T13:30:12;3.47;;;2.97;;
8042;SDS011;4064;48.132;11.366;2022-09-01T13:32:43;5.20;;;3.40;;
8042;SDS011;4064;48.132;11.366;2022-09-01T13:35:11;2.87;;;2.67;;
8042;SDS011;4064;48.132;11.366;2022-09-01T13:37:39;3.57;;;2.63;;
8042;SDS011;4064;48.132;11.366;2022-09-01T13:40:06;4.90;;;3.43;;
8042;SDS011;4064;48.132;11.366;2022-09-01T13:42:33;2.80;;;2.47;;
8042;SDS011;4064;48.132;11.366;2022-09-01T13:44:59;2.30;;;2.10;;
8042;SDS011;4064;48.132;11.366;2022-09-01T13:47:26;3.27;;;2.80;;
8042;SDS011;4064;48.132;11.366;2022-09-01T13:49:51;2.83;;;2.53;;
8042;SDS011;4064;48.132;11.366;2022-09-01T13:52:17;3.03;;;2.77;;
8042;SDS011;4064;48.132;11.366;2022-09-01T13:54:43;4.33;;;3.40;;
8042;SDS011;4064;48.132;11.366;2022-09-01T13:57:09;4.43;;;2.97;;
8042;SDS011;4064;48.132;11.366;2022-09-01T13:59:40;3.10;;;2.80;;
8042;SDS011;4064;48.132;11.366;2022-09-01T14:02:06;3.90;;;2.87;;
8042;SDS011;4064;48.132;11.366;2022-09-01T14:04:31;3.93;;;3.57;;
8042;SDS011;4064;48.132;11.366;2022-09-01T14:06:57;3.87;;;2.67;;
8042;SDS011;4064;48.132;11.366;2022-09-01T14:09:23;2.30;;;2.10;;
8042;SDS011;4064;48.132;11.366;2022-09-01T14:11:51;5.83;;;2.17;;
8042;SDS011;4064;48.132;11.366;2022-09-01T14:14:18;3.57;;;3.27;;
8042;SDS011;4064;48.132;11.366;2022-09-01T14:16:44;2.80;;;2.60;;
8042;SDS011;4064;48.132;11.366;2022-09-01T14:19:10;4.30;;;2.83;;
8042;SDS011;4064;48.132;11.366;2022-09-01T14:21:36;2.63;;;2.43;;
8042;SDS011;4064;48.132;11.366;2022-09-01T14:24:03;2.60;;;2.40;;
8042;SDS011;4064;48.132;11.366;2022-09-01T14:26:29;2.83;;;2.63;;
8042;SDS011;4064;48.132;11.366;2022-09-01T14:28:55;3.83;;;3.37;;
8042;SDS011;4064;48.132;11.366;2022-09-01T14:31:20;3.80;;;2.97;;
8042;SDS011;4064;48.132;11.366;2022-09-01T14:33:47;3.00;;;2.70;;
8042;SDS011;4064;48.132;11.366;2022-09-01T14:36:24;3.67;;;2.37;;
8042;SDS011;4064;48.132;11.366;2022-09-01T14:38:51;3.20;;;2.93;;
8042;SDS011;4064;48.132;11.366;2022-09-01T14:41:17;3.30;;;2.90;;
8042;SDS011;4064;48.132;11.366;2022-09-01T14:43:45;5.20;;;4.77;;
8042;SDS011;4064;48.132;11.366;2022-09-01T14:46:13;2.30;;;2.10;;
8042;SDS011;4064;48.132;11.366;2022-09-01T14:48:39;2.73;;;2.53;;
8042;SDS011;4064;48.132;11.366;2022-09-01T14:51:06;3.03;;;2.73;;
8042;SDS011;4064;48.132;11.366;2022-09-01T14:53:32;4.43;;;2.80;;
8042;SDS011;4064;48.132;11.366;2022-09-01T14:55:58;3.47;;;2.33;;
8042;SDS011;4064;48.132;11.366;2022-09-01T14:58:25;2.90;;;2.30;;
8042;SDS011;4064;48.132;11.366;2022-09-01T15:00:53;2.07;;;1.87;;
8042;SDS011;4064;48.132;11.366;2022-09-01T15:03:20;3.17;;;2.63;;
8042;SDS011;4064;48.132;11.366;2022-09-01T15:05:49;3.60;;;2.57;;
8042;SDS011;4064;48.132;11.366;2022-09-01T15:08:16;3.53;;;3.10;;
8042;SDS011;4064;48.132;11.366;2022-09-01T15:10:42;3.17;;;2.40;;
8042;SDS011;4064;48.132;11.366;2022-09-01T15:13:07;2.67;;;2.47;;
8042;SDS011;4064;48.132;11.366;2022-09-01T15:15:33;3.70;;;2.30;;
8042;SDS011;4064;48.132;11.366;2022-09-01T15:17:59;2.47;;;2.20;;
8042;SDS011;4064;48.132;11.366;2022-09-01T15:20:26;3.00;;;2.43;;
8042;SDS011;4064;48.132;11.366;2022-09-01T15:23:15;4.27;;;3.30;;
8042;SDS011;4064;48.132;11.366;2022-09-01T15:25:46;2.77;;;2.20;;
8042;SDS011;4064;48.132;11.366;2022-09-01T15:28:13;2.63;;;2.33;;
8042;SDS011;4064;48.132;11.366;2022-09-01T15:30:39;4.97;;;2.70;;
8042;SDS011;4064;48.132;11.366;2022-09-01T15:33:05;3.70;;;2.67;;
8042;SDS011;4064;48.132;11.366;2022-09-01T15:35:32;2.30;;;2.13;;
8042;SDS011;4064;48.132;11.366;2022-09-01T15:37:58;2.40;;;1.93;;
8042;SDS011;4064;48.132;11.366;2022-09-01T15:40:24;4.23;;;2.00;;
8042;SDS011;4064;48.132;11.366;2022-09-01T15:42:51;3.33;;;2.20;;
8042;SDS011;4064;48.132;11.366;2022-09-01T15:45:19;2.27;;;2.03;;
8042;SDS011;4064;48.132;11.366;2022-09-01T15:47:46;2.40;;;2.20;;
8042;SDS011;4064;48.132;11.366;2022-09-01T15:50:13;2.50;;;2.30;;
8042;SDS011;4064;48.132;11.366;2022-09-01T15:52:47;2.53;;;1.60;;
8042;SDS011;4064;48.132;11.366;2022-09-01T15:55:20;3.10;;;2.37;;
8042;SDS011;4064;48.132;11.366;2022-09-01T16:00:22;2.33;;;2.13;;
8042;SDS011;4064;48.132;11.366;2022-09-01T16:02:49;2.30;;;1.77;;
8042;SDS011;4064;48.132;11.366;2022-09-01T16:05:15;3.67;;;2.20;;
8042;SDS011;4064;48.132;11.366;2022-09-01T16:07:42;2.30;;;2.10;;
8042;SDS011;4064;48.132;11.366;2022-09-01T16:10:08;2.00;;;1.80;;
8042;SDS011;4064;48.132;11.366;2022-09-01T16:12:39;2.40;;;2.10;;
8042;SDS011;4064;48.132;11.366;2022-09-01T16:15:08;9.27;;;2.90;;
8042;SDS011;4064;48.132;11.366;2022-09-01T16:20:06;2.33;;;2.13;;
8042;SDS011;4064;48.132;11.366;2022-09-01T16:22:47;4.90;;;2.07;;
8042;SDS011;4064;48.132;11.366;2022-09-01T16:25:23;2.50;;;2.20;;
8042;SDS011;4064;48.132;11.366;2022-09-01T16:27:58;5.03;;;1.93;;
8042;SDS011;4064;48.132;11.366;2022-09-01T16:30:28;2.20;;;1.80;;
8042;SDS011;4064;48.132;11.366;2022-09-01T16:32:56;2.30;;;2.10;;